Time;durP1;ratioP1;P1;durP2;ratioP2;P2;SDS_P1;SDS_P2;PMS_P1;PMS_P2;Temp;Humidity;BMP_temperature;BMP_pressure;BME280_temperature;BME280_humidity;BME280_pressure;Samples;Min_cycle;Max_cycle;Signal;HPM_P1;HPM_P2
2022/01/25 00:15:03;;;;;;;0.90;0.90;;;;;;;-12.27;76.58;93447.00;5038875;28;20678;-73
2022/01/25 00:24:52;;;;;;;1.40;1.40;;;;;;;-13.02;77.54;93425.88;5039019;28;20590;-73
2022/01/25 00:27:39;;;;;;;1.73;1.73;;;;;;;-13.21;77.93;93402.91;5038600;28;20602;-73
2022/01/25 00:30:24;;;;;;;0.90;0.90;;;;;;;-12.93;77.43;93432.81;5039020;28;20461;-73
2022/01/25 00:32:51;;;;;;;1.50;1.50;;;;;;;-12.74;76.81;93444.44;5038730;28;20727;-73
2022/01/25 00:35:19;;;;;;;1.40;1.40;;;;;;;-12.85;78.18;93436.53;5038615;28;20199;-73
2022/01/25 00:37:46;;;;;;;0.90;0.90;;;;;;;-12.98;77.87;93431.72;5038949;28;20508;-73
2022/01/25 00:40:14;;;;;;;0.97;0.97;;;;;;;-13.16;77.81;93421.00;5038930;28;20237;-73
2022/01/25 00:42:42;;;;;;;1.00;1.00;;;;;;;-13.29;76.55;93443.75;5038740;28;20260;-73
2022/01/25 00:45:11;;;;;;;0.93;0.93;;;;;;;-13.35;77.19;93438.56;5037870;28;20612;-73
2022/01/25 00:47:41;;;;;;;1.00;1.00;;;;;;;-13.48;77.46;93436.19;5038867;28;20650;-73
2022/01/25 00:50:14;;;;;;;1.10;1.10;;;;;;;-13.47;78.31;93420.84;5038353;28;20272;-73
2022/01/25 00:55:30;;;;;;;1.63;1.63;;;;;;;-13.35;76.24;93433.72;5038399;28;20471;-73
2022/01/25 00:57:57;;;;;;;1.30;1.30;;;;;;;-13.26;77.55;93434.22;5037885;28;20552;-73
2022/01/25 01:00:25;;;;;;;0.80;0.80;;;;;;;-13.17;76.48;93426.59;5037856;28;20210;-73
2022/01/25 01:02:52;;;;;;;0.97;0.97;;;;;;;-13.42;75.84;93417.09;5038686;28;20214;-73
2022/01/25 01:05:22;;;;;;;1.07;1.07;;;;;;;-13.46;75.82;93429.78;5037946;28;20584;-73
2022/01/25 01:07:53;;;;;;;5.40;2.50;;;;;;;-13.57;76.06;93433.19;5038334;28;20639;-73
2022/01/25 01:10:37;;;;;;;1.23;1.23;;;;;;;-13.74;77.21;93409.53;5036634;28;20272;-73
2022/01/25 01:16:34;;;;;;;1.00;1.00;;;;;;;-13.72;78.52;93413.72;5016446;28;20736;-73
2022/01/25 01:30:07;;;;;;;0.90;0.90;;;;;;;-13.63;76.84;93438.53;5036904;28;20621;-73
2022/01/25 01:33:05;;;;;;;1.10;1.10;;;;;;;-13.83;76.14;93431.69;5037478;28;20599;-73
2022/01/25 01:35:46;;;;;;;0.80;0.80;;;;;;;-13.81;76.17;93436.63;5037102;28;20613;-73
2022/01/25 01:38:37;;;;;;;1.00;1.00;;;;;;;-13.94;76.90;93430.19;5037700;28;20501;-73
2022/01/25 01:41:21;;;;;;;0.87;0.87;;;;;;;-13.84;76.51;93419.44;5037580;28;20468;-73
2022/01/25 01:43:53;;;;;;;1.40;1.40;;;;;;;-13.84;77.35;93420.28;5037560;28;20688;-73
2022/01/25 01:46:32;;;;;;;0.80;0.80;;;;;;;-13.69;76.33;93413.91;5037483;28;20563;-73
2022/01/25 01:49:01;;;;;;;0.90;0.90;;;;;;;-13.83;76.40;93406.56;5036984;28;20590;-73
2022/01/25 01:51:33;;;;;;;0.90;0.90;;;;;;;-13.87;76.18;93405.56;5036779;28;20633;-73
2022/01/25 01:54:04;;;;;;;0.90;0.90;;;;;;;-13.97;77.06;93404.16;5036618;28;20675;-73
2022/01/25 01:56:31;;;;;;;1.00;1.00;;;;;;;-14.00;77.67;93396.69;5036697;28;20520;-73
2022/01/25 01:59:01;;;;;;;1.00;1.00;;;;;;;-13.88;77.56;93391.72;5036658;28;20207;-73
2022/01/25 02:01:31;;;;;;;0.97;0.97;;;;;;;-13.69;76.99;93400.94;5037218;28;20603;-73
2022/01/25 02:04:00;;;;;;;1.20;1.20;;;;;;;-13.62;74.99;93408.66;5032326;28;20642;-73
2022/01/25 02:06:31;;;;;;;0.93;0.93;;;;;;;-13.71;76.42;93391.13;5029188;28;20561;-74
2022/01/25 02:08:58;;;;;;;0.80;0.80;;;;;;;-13.81;76.81;93390.50;5036951;28;20619;-73
2022/01/25 02:11:26;;;;;;;1.30;1.30;;;;;;;-14.05;76.51;93370.50;5036054;28;20602;-73
2022/01/25 02:13:53;;;;;;;1.00;1.00;;;;;;;-13.70;76.12;93406.53;5036417;28;20633;-73
2022/01/25 02:16:37;;;;;;;1.73;1.73;;;;;;;-13.73;76.48;93395.03;5036735;28;20625;-73
2022/01/25 02:24:38;;;;;;;1.13;1.13;;;;;;;-13.95;76.38;93388.09;5036647;28;20343;-73
2022/01/25 02:27:07;;;;;;;1.00;1.00;;;;;;;-13.99;76.24;93397.53;5036750;28;20592;-73
2022/01/25 02:29:35;;;;;;;0.90;0.90;;;;;;;-14.09;75.97;93388.03;5036679;28;20590;-73
2022/01/25 02:32:02;;;;;;;1.17;1.17;;;;;;;-14.14;77.10;93382.09;5036274;28;20607;-74
2022/01/25 02:34:29;;;;;;;3.73;3.43;;;;;;;-14.17;76.98;93375.44;5036543;28;20263;-73
2022/01/25 02:36:59;;;;;;;1.30;1.30;;;;;;;-14.16;76.58;93381.97;5036278;28;20205;-74
2022/01/25 02:39:27;;;;;;;1.10;1.10;;;;;;;-14.21;77.05;93382.47;5036937;28;20204;-74
2022/01/25 02:41:55;;;;;;;1.83;1.83;;;;;;;-14.25;76.44;93379.03;5036913;28;20510;-73
2022/01/25 02:44:25;;;;;;;0.80;0.80;;;;;;;-14.32;76.47;93372.97;5036840;28;20535;-73
2022/01/25 02:49:37;;;;;;;4.23;1.40;;;;;;;-13.98;74.02;93399.22;5035739;28;20224;-73
2022/01/25 02:52:06;;;;;;;1.40;1.40;;;;;;;-14.05;75.14;93376.19;5036315;28;20237;-74
2022/01/25 02:54:35;;;;;;;1.00;1.00;;;;;;;-13.94;73.86;93391.38;5027762;28;20559;-73
2022/01/25 02:57:03;;;;;;;1.63;1.63;;;;;;;-14.01;74.85;93372.34;5032929;28;20567;-74
2022/01/25 02:59:30;;;;;;;1.03;1.03;;;;;;;-14.23;74.74;93379.94;5035953;28;20323;-73
2022/01/25 03:01:57;;;;;;;1.00;1.00;;;;;;;-14.31;75.88;93369.75;5035754;28;20305;-74
2022/01/25 03:04:24;;;;;;;1.00;1.00;;;;;;;-14.39;75.56;93378.22;5035402;28;20486;-74
2022/01/25 03:06:52;;;;;;;2.67;2.20;;;;;;;-14.52;75.42;93380.63;5036276;28;20194;-73
2022/01/25 03:09:20;;;;;;;1.00;1.00;;;;;;;-14.62;75.93;93360.59;5035478;28;20589;-74
2022/01/25 03:11:51;;;;;;;4.33;2.00;;;;;;;-14.61;75.92;93370.41;5015212;28;20596;-73
2022/01/25 03:14:20;;;;;;;1.10;1.10;;;;;;;-14.51;74.30;93375.03;5016137;28;20525;-73
2022/01/25 03:17:03;;;;;;;1.00;1.00;;;;;;;-14.54;75.42;93364.34;5015445;28;20260;-73
2022/01/25 03:19:45;;;;;;;0.90;0.90;;;;;;;-14.68;76.01;93361.06;5015658;28;20214;-73
2022/01/25 03:22:18;;;;;;;1.47;1.37;;;;;;;-14.59;75.86;93360.78;5016234;28;20510;-73
2022/01/25 03:24:47;;;;;;;1.10;1.10;;;;;;;-14.63;75.65;93352.47;5015767;28;20603;-73
2022/01/25 03:27:15;;;;;;;1.00;1.00;;;;;;;-14.64;75.88;93359.69;5015512;28;20602;-73
2022/01/25 03:29:42;;;;;;;1.07;1.07;;;;;;;-14.68;75.93;93361.06;5015900;28;20634;-74
2022/01/25 03:32:09;;;;;;;0.90;0.90;;;;;;;-14.65;76.21;93354.00;5015372;28;20609;-73
2022/01/25 03:34:36;;;;;;;1.10;1.10;;;;;;;-14.66;75.16;93366.84;5015571;28;20501;-73
2022/01/25 03:37:04;;;;;;;2.67;2.43;;;;;;;-14.72;76.15;93359.22;5015527;28;20684;-73
2022/01/25 03:39:31;;;;;;;1.03;1.03;;;;;;;-14.77;76.32;93353.25;5015812;28;20620;-73
2022/01/25 03:42:00;;;;;;;8.77;2.17;;;;;;;-14.76;75.99;93348.47;5015199;28;20250;-74
2022/01/25 03:44:27;;;;;;;5.80;3.80;;;;;;;-14.75;76.02;93342.03;5015143;28;20466;-74
2022/01/25 03:47:02;;;;;;;1.13;1.13;;;;;;;-14.76;76.22;93342.81;5015535;28;20662;-74
2022/01/25 03:52:13;;;;;;;1.27;1.27;;;;;;;-14.76;74.57;93338.75;5015623;28;20676;-74
2022/01/25 03:54:41;;;;;;;1.07;1.07;;;;;;;-14.82;75.74;93333.56;5015727;28;20260;-73
2022/01/25 03:57:10;;;;;;;1.20;1.20;;;;;;;-14.81;76.33;93331.97;5015364;28;20595;-74
2022/01/25 03:59:37;;;;;;;1.20;1.20;;;;;;;-14.84;76.57;93324.53;5015026;28;20537;-74
2022/01/25 04:02:04;;;;;;;0.80;0.80;;;;;;;-14.93;77.10;93315.13;5015153;28;20598;-74
2022/01/25 04:04:33;;;;;;;1.57;1.57;;;;;;;-14.77;75.77;93329.00;5015736;28;20564;-73
2022/01/25 04:07:08;;;;;;;1.47;1.47;;;;;;;-14.64;75.91;93336.25;5015923;28;20482;-74
2022/01/25 04:09:35;;;;;;;1.17;1.17;;;;;;;-14.75;75.05;93325.06;5015875;28;20205;-74
2022/01/25 04:12:02;;;;;;;1.00;1.00;;;;;;;-14.54;73.89;93350.63;5015153;28;20591;-74
2022/01/25 04:14:31;;;;;;;1.10;1.10;;;;;;;-14.49;73.79;93342.03;5014572;28;20258;-73
2022/01/25 04:17:02;;;;;;;1.00;1.00;;;;;;;-14.58;74.79;93328.50;5015185;28;20608;-74
2022/01/25 04:19:34;;;;;;;1.00;1.00;;;;;;;-14.47;73.73;93345.38;5015060;28;20198;-74
2022/01/25 04:25:04;;;;;;;1.60;1.60;;;;;;;-14.45;71.63;93334.19;5019512;28;20252;-74
2022/01/25 04:27:32;;;;;;;10.70;2.23;;;;;;;-14.59;73.89;93324.44;5019010;28;20564;-74
2022/01/25 04:30:01;;;;;;;1.20;1.20;;;;;;;-14.75;74.75;93305.66;5018333;28;20571;-74
2022/01/25 04:32:34;;;;;;;1.30;1.30;;;;;;;-14.90;75.38;93298.31;5018999;28;20588;-74
2022/01/25 04:35:14;;;;;;;1.00;1.00;;;;;;;-14.76;73.20;93323.41;5019963;28;20227;-74
2022/01/25 04:49:04;;;;;;;1.30;1.30;;;;;;;-15.19;75.23;93300.53;5018772;28;20543;-74
2022/01/25 04:54:20;;;;;;;3.60;2.63;;;;;;;-15.38;74.17;93305.84;5018371;28;20490;-74
2022/01/25 04:56:55;;;;;;;2.43;2.33;;;;;;;-15.37;74.67;93311.50;5018379;28;20585;-74
2022/01/25 04:59:28;;;;;;;1.20;1.20;;;;;;;-15.20;73.03;93319.09;5018715;28;20461;-74
2022/01/25 05:02:03;;;;;;;5.87;5.67;;;;;;;-15.12;73.56;93312.31;5018089;28;20638;-74
2022/01/25 05:04:35;;;;;;;1.00;1.00;;;;;;;-15.21;75.00;93292.38;5018255;28;20696;-74
2022/01/25 05:07:13;;;;;;;6.30;4.03;;;;;;;-15.15;74.69;93293.56;5017813;28;20198;-74
2022/01/25 05:09:42;;;;;;;4.60;4.40;;;;;;;-15.24;74.45;93294.59;5018192;28;20576;-74
2022/01/25 05:12:11;;;;;;;1.63;1.63;;;;;;;-15.39;75.56;93271.84;5017772;28;20580;-74
2022/01/25 05:14:55;;;;;;;3.90;3.80;;;;;;;-15.39;75.11;93277.53;5017828;28;20604;-74
2022/01/25 05:17:32;;;;;;;3.17;3.07;;;;;;;-15.32;75.37;93286.03;5016582;28;20559;-74
2022/01/25 05:22:40;;;;;;;1.53;1.53;;;;;;;-15.19;75.51;93278.75;5017031;28;20528;-74
2022/01/25 05:25:08;;;;;;;5.40;2.13;;;;;;;-15.07;75.78;93274.66;5017762;28;20586;-74
2022/01/25 05:27:35;;;;;;;6.90;2.90;;;;;;;-15.03;75.53;93274.09;5017638;28;20586;-74
2022/01/25 05:30:02;;;;;;;1.13;1.13;;;;;;;-14.93;75.04;93285.19;5018296;28;20584;-74
2022/01/25 05:32:32;;;;;;;5.30;4.80;;;;;;;-14.96;74.79;93265.63;5017849;28;20518;-74
2022/01/25 05:35:00;;;;;;;1.47;1.47;;;;;;;-14.82;73.78;93282.69;5016725;28;20597;-75
2022/01/25 05:37:28;;;;;;;3.93;3.83;;;;;;;-14.68;74.29;93276.22;5021342;28;20313;-74
2022/01/25 05:39:55;;;;;;;2.93;2.83;;;;;;;-14.29;72.17;93304.38;5024578;28;20202;-73
2022/01/25 05:45:18;;;;;;;1.97;1.97;;;;;;;-14.26;71.47;93289.16;5018664;28;20471;-76
2022/01/25 05:47:47;;;;;;;4.60;4.50;;;;;;;-14.25;70.24;93269.00;5017869;28;20561;-76
2022/01/25 05:50:15;;;;;;;18.03;8.43;;;;;;;-13.91;69.26;93321.16;5021702;28;20526;-77
2022/01/25 05:52:42;;;;;;;3.20;3.00;;;;;;;-14.30;69.52;93281.69;5018375;28;20528;-76
2022/01/25 05:55:10;;;;;;;1.80;1.80;;;;;;;-14.43;69.61;93293.06;5019524;28;20209;-77
2022/01/25 05:57:38;;;;;;;7.60;7.07;;;;;;;-14.63;70.37;93299.13;5019458;28;20199;-76
2022/01/25 06:00:08;;;;;;;1.40;1.40;;;;;;;-15.04;71.90;93247.38;5024254;28;20225;-77
2022/01/25 06:02:36;;;;;;;2.50;2.50;;;;;;;-14.86;72.73;93279.94;5018012;28;20494;-78
2022/01/25 06:05:06;;;;;;;5.43;5.33;;;;;;;-14.86;72.77;93275.94;5016316;28;20232;-79
2022/01/25 06:07:34;;;;;;;1.30;1.30;;;;;;;-14.95;73.26;93255.19;5020515;28;20279;-76
2022/01/25 06:10:02;;;;;;;4.83;4.63;;;;;;;-14.97;73.14;93244.53;5019087;28;20489;-77
2022/01/25 06:12:29;;;;;;;2.10;2.10;;;;;;;-15.03;73.97;93256.28;5020504;28;20526;-77
2022/01/25 06:14:59;;;;;;;1.20;1.20;;;;;;;-15.03;74.72;93247.44;5021542;28;20298;-76
2022/01/25 06:17:26;;;;;;;2.73;1.87;;;;;;;-14.90;75.23;93241.75;5018794;28;20252;-75
2022/01/25 06:19:53;;;;;;;1.43;1.43;;;;;;;-14.78;74.14;93242.50;5019608;28;20232;-77
2022/01/25 06:22:22;;;;;;;2.97;2.90;;;;;;;-14.58;73.15;93259.03;5021160;28;20219;-77
2022/01/25 06:24:50;;;;;;;1.20;1.20;;;;;;;-14.61;73.10;93229.78;5021947;28;20620;-77
2022/01/25 06:27:19;;;;;;;1.10;1.10;;;;;;;-14.51;73.41;93241.69;5013810;28;20553;-76
2022/01/25 06:29:47;;;;;;;2.03;2.03;;;;;;;-14.79;72.56;93245.66;5022131;28;20545;-77
2022/01/25 06:32:14;;;;;;;14.13;5.53;;;;;;;-14.78;72.53;93266.72;5024446;28;20560;-77
2022/01/25 06:34:43;;;;;;;3.97;3.70;;;;;;;-14.82;73.35;93258.44;5019808;28;20491;-76
2022/01/25 06:37:11;;;;;;;2.47;2.47;;;;;;;-14.84;73.51;93269.63;5022994;28;20544;-76
2022/01/25 06:39:40;;;;;;;4.00;3.80;;;;;;;-14.90;73.53;93261.13;5013405;28;20233;-74
2022/01/25 06:42:08;;;;;;;4.57;4.40;;;;;;;-14.78;73.56;93274.84;5022692;28;20605;-76
2022/01/25 06:44:37;;;;;;;1.70;1.70;;;;;;;-14.76;73.45;93280.59;5013811;28;20659;-76
2022/01/25 06:47:05;;;;;;;4.40;4.27;;;;;;;-15.11;73.57;93200.13;5018328;28;20304;-76
2022/01/25 06:49:32;;;;;;;3.93;3.73;;;;;;;-14.61;73.10;93282.28;5026411;28;20635;-74
2022/01/25 06:52:00;;;;;;;2.00;2.00;;;;;;;-14.69;72.09;93264.84;5021457;28;20545;-74
2022/01/25 06:54:27;;;;;;;4.07;3.97;;;;;;;-14.54;73.41;93273.03;5018970;28;20476;-75
2022/01/25 06:56:55;;;;;;;1.40;1.40;;;;;;;-14.44;73.56;93279.25;5016182;28;20606;-75
2022/01/25 06:59:22;;;;;;;1.57;1.57;;;;;;;-14.56;74.45;93254.28;5020954;28;20599;-76
2022/01/25 07:01:50;;;;;;;6.80;6.30;;;;;;;-14.55;76.34;93254.38;5014641;28;20465;-76
2022/01/25 07:04:17;;;;;;;1.00;1.00;;;;;;;-14.45;76.39;93246.88;5015600;28;20568;-76
2022/01/25 07:06:44;;;;;;;5.20;4.33;;;;;;;-14.45;76.68;93242.03;5015721;28;20561;-78
2022/01/25 07:09:11;;;;;;;9.53;4.80;;;;;;;-14.24;76.75;93244.81;5024155;28;20211;-77
2022/01/25 07:11:39;;;;;;;1.50;1.50;;;;;;;-14.11;75.45;93241.53;5016954;28;20296;-74
2022/01/25 07:14:07;;;;;;;2.40;2.40;;;;;;;-13.87;75.37;93259.91;5017590;28;20613;-76
2022/01/25 07:16:35;;;;;;;1.80;1.80;;;;;;;-13.77;74.84;93247.53;5017895;28;20724;-77
2022/01/25 07:19:03;;;;;;;0.93;0.93;;;;;;;-13.60;75.45;93246.03;5015636;28;20575;-77
2022/01/25 07:21:30;;;;;;;1.57;1.57;;;;;;;-13.55;75.30;93247.13;5020769;28;20285;-76
2022/01/25 07:23:58;;;;;;;1.27;1.27;;;;;;;-13.51;75.04;93236.81;5017474;28;20569;-75
2022/01/25 07:26:25;;;;;;;2.83;2.80;;;;;;;-13.39;76.81;93241.50;5014565;28;20575;-76
2022/01/25 07:28:52;;;;;;;0.77;0.77;;;;;;;-13.37;76.63;93242.44;5015578;28;20567;-77
2022/01/25 07:31:21;;;;;;;1.37;1.37;;;;;;;-13.28;77.09;93236.47;5017527;28;20675;-76
2022/01/25 07:33:48;;;;;;;1.07;1.07;;;;;;;-13.31;77.00;93240.34;5020236;28;20667;-74
2022/01/25 07:36:16;;;;;;;1.10;1.10;;;;;;;-13.35;76.81;93219.06;5018716;28;20310;-75
2022/01/25 07:38:43;;;;;;;1.10;1.10;;;;;;;-13.33;78.31;93205.41;5018042;28;20645;-75
2022/01/25 07:41:10;;;;;;;4.00;3.43;;;;;;;-13.04;76.92;93247.50;5019059;28;20593;-75
2022/01/25 07:43:37;;;;;;;1.97;1.87;;;;;;;-13.19;77.15;93219.13;5027369;28;20560;-78
2022/01/25 07:46:05;;;;;;;1.40;1.40;;;;;;;-13.04;77.55;93217.47;5018965;28;20660;-74
2022/01/25 07:48:33;;;;;;;1.20;1.20;;;;;;;-13.07;77.84;93202.75;5017184;28;20587;-77
2022/01/25 07:51:01;;;;;;;1.97;1.97;;;;;;;-12.72;77.56;93224.00;5016048;28;20486;-77
2022/01/25 07:53:28;;;;;;;1.53;1.53;;;;;;;-12.49;75.99;93217.91;5016390;28;20197;-76
2022/01/25 07:55:55;;;;;;;0.90;0.90;;;;;;;-12.47;75.70;93216.41;5018343;28;20502;-76
2022/01/25 07:58:22;;;;;;;3.63;3.33;;;;;;;-12.25;76.23;93209.41;5025099;28;20306;-77
2022/01/25 08:00:49;;;;;;;1.90;1.90;;;;;;;-12.41;77.63;93159.16;5029597;28;20491;-75
2022/01/25 08:03:19;;;;;;;1.93;1.93;;;;;;;-12.06;76.67;93214.44;5022435;28;20553;-78
2022/01/25 08:05:48;;;;;;;2.87;2.53;;;;;;;-11.97;75.22;93192.97;5025192;28;20519;-75
2022/01/25 08:08:15;;;;;;;1.30;1.30;;;;;;;-11.86;74.75;93188.63;5024898;28;20462;-77
2022/01/25 08:10:43;;;;;;;1.80;1.70;;;;;;;-11.48;75.25;93217.22;5022015;28;20603;-77
2022/01/25 08:13:10;;;;;;;4.20;3.90;;;;;;;-11.38;73.96;93222.59;5027400;28;20608;-77
2022/01/25 08:15:37;;;;;;;4.00;2.33;;;;;;;-11.35;73.80;93215.44;5019655;28;20535;-76
2022/01/25 08:18:04;;;;;;;1.63;1.57;;;;;;;-11.28;73.43;93220.59;5021221;28;20483;-76
2022/01/25 08:20:32;;;;;;;1.70;1.70;;;;;;;-11.25;72.87;93213.41;5019350;28;20234;-76
2022/01/25 08:23:00;;;;;;;0.90;0.90;;;;;;;-11.12;72.04;93232.72;5020512;28;20275;-77
2022/01/25 08:25:28;;;;;;;1.20;1.20;;;;;;;-11.19;72.18;93214.53;5024511;28;20618;-77
2022/01/25 08:27:55;;;;;;;1.23;1.23;;;;;;;-11.14;71.89;93222.91;5022368;28;20210;-76
2022/01/25 08:30:23;;;;;;;1.83;1.83;;;;;;;-11.09;71.86;93220.66;5020817;28;20551;-76
2022/01/25 08:32:51;;;;;;;2.10;1.40;;;;;;;-11.31;71.15;93211.53;5020620;28;20486;-75
2022/01/25 08:35:20;;;;;;;2.10;2.00;;;;;;;-11.09;72.02;93218.22;5018678;28;20597;-74
2022/01/25 08:37:47;;;;;;;1.10;1.10;;;;;;;-11.13;71.73;93219.69;5019640;28;20499;-76
2022/01/25 08:40:16;;;;;;;1.63;1.63;;;;;;;-11.00;71.79;93208.91;5020453;28;20201;-75
2022/01/25 08:42:44;;;;;;;1.10;1.10;;;;;;;-10.92;73.78;93185.69;5020335;28;20578;-76
2022/01/25 08:45:11;;;;;;;1.83;1.83;;;;;;;-10.69;73.58;93187.53;5019692;28;20536;-76
2022/01/25 08:47:40;;;;;;;0.93;0.93;;;;;;;-10.46;73.25;93185.28;5020077;28;20569;-75
2022/01/25 08:50:09;;;;;;;5.40;1.90;;;;;;;-10.29;72.37;93191.72;5022076;28;20205;-77
2022/01/25 08:52:37;;;;;;;1.83;1.83;;;;;;;-10.13;72.42;93186.69;5020006;28;20594;-75
2022/01/25 08:55:05;;;;;;;2.47;1.73;;;;;;;-9.98;74.06;93177.56;5021179;28;20267;-77
2022/01/25 08:57:34;;;;;;;2.60;2.50;;;;;;;-9.74;74.65;93166.34;5020247;28;20505;-76
2022/01/25 09:00:01;;;;;;;1.87;1.77;;;;;;;-9.56;72.64;93161.34;5020027;28;20236;-75
2022/01/25 09:02:28;;;;;;;1.90;1.90;;;;;;;-9.32;71.49;93168.81;5020177;28;20199;-76
2022/01/25 09:04:56;;;;;;;2.27;2.17;;;;;;;-9.11;71.21;93166.34;5017651;28;20533;-77
2022/01/25 09:07:23;;;;;;;1.57;1.57;;;;;;;-8.99;68.98;93188.84;5021770;28;20551;-75
2022/01/25 09:09:50;;;;;;;2.17;2.07;;;;;;;-8.97;67.27;93192.19;5019371;28;20557;-76
2022/01/25 09:12:17;;;;;;;2.20;2.20;;;;;;;-8.94;67.59;93178.47;5019828;28;20565;-76
2022/01/25 09:14:46;;;;;;;1.27;1.27;;;;;;;-8.75;68.16;93171.81;5019766;28;20644;-75
2022/01/25 09:17:13;;;;;;;1.93;1.93;;;;;;;-8.61;67.55;93181.31;5021976;28;20362;-73
2022/01/25 09:19:41;;;;;;;3.77;3.47;;;;;;;-8.65;67.09;93162.41;5020018;28;20268;-74
2022/01/25 09:22:08;;;;;;;2.13;2.13;;;;;;;-8.49;67.89;93159.72;5019786;28;20609;-74
2022/01/25 09:24:37;;;;;;;2.20;2.20;;;;;;;-8.45;67.74;93146.81;5023839;28;20616;-75
2022/01/25 09:27:08;;;;;;;2.90;2.70;;;;;;;-8.15;67.43;93154.38;5028216;28;20528;-75
2022/01/25 09:29:35;;;;;;;1.73;1.70;;;;;;;-8.16;67.91;93138.00;5025969;28;20527;-75
2022/01/25 09:32:08;;;;;;;4.80;1.83;;;;;;;-7.90;68.71;93130.72;5028500;28;20547;-75
2022/01/25 09:34:35;;;;;;;1.00;1.00;;;;;;;-7.71;68.44;93106.81;5026451;28;20560;-75
2022/01/25 09:37:03;;;;;;;2.43;2.33;;;;;;;-7.48;66.49;93114.91;5021881;28;20644;-77
2022/01/25 09:39:30;;;;;;;2.80;2.70;;;;;;;-7.18;66.36;93130.59;5025830;28;20682;-74
2022/01/25 09:42:00;;;;;;;3.23;3.20;;;;;;;-6.92;65.92;93124.00;5026871;28;20621;-74
2022/01/25 09:44:27;;;;;;;1.33;1.33;;;;;;;-6.86;64.89;93119.28;5027101;28;20649;-74
2022/01/25 09:46:56;;;;;;;1.00;1.00;;;;;;;-6.56;64.07;93133.25;5020729;28;20473;-74
2022/01/25 09:49:24;;;;;;;3.20;2.93;;;;;;;-6.43;63.61;93135.28;5026124;28;20602;-75
2022/01/25 09:51:53;;;;;;;1.57;1.57;;;;;;;-6.31;63.31;93124.13;5017910;28;20258;-71
2022/01/25 09:54:20;;;;;;;2.33;2.27;;;;;;;-6.24;63.73;93103.03;5025554;28;20580;-72
2022/01/25 09:56:48;;;;;;;1.87;1.87;;;;;;;-6.18;62.56;93129.41;5024615;28;20505;-71
2022/01/25 09:59:16;;;;;;;0.80;0.80;;;;;;;-6.12;62.28;93107.44;5027027;28;20312;-74
2022/01/25 10:01:44;;;;;;;1.17;1.17;;;;;;;-6.17;62.26;93099.94;5026615;28;20636;-73
2022/01/25 10:04:30;;;;;;;4.27;3.83;;;;;;;-6.02;61.40;93114.25;5023742;28;20228;-73
2022/01/25 10:06:57;;;;;;;1.70;1.17;;;;;;;-5.81;60.72;93104.13;5023726;28;20287;-72
2022/01/25 10:09:26;;;;;;;2.70;2.57;;;;;;;-5.76;61.17;93120.66;5026758;28;20652;-73
2022/01/25 10:11:53;;;;;;;2.10;2.00;;;;;;;-5.50;58.41;93136.91;5025099;28;20521;-72
2022/01/25 10:14:23;;;;;;;2.03;1.57;;;;;;;-5.27;60.77;93098.09;5022117;28;20471;-72
2022/01/25 10:16:54;;;;;;;0.93;0.93;;;;;;;-5.06;58.14;93128.13;5025855;28;20452;-73
2022/01/25 10:19:26;;;;;;;9.80;2.93;;;;;;;-4.02;57.83;93105.69;5014467;28;20510;-73
2022/01/25 10:21:54;;;;;;;1.83;1.83;;;;;;;-2.59;54.21;93141.03;5015449;28;20578;-73
2022/01/25 10:24:24;;;;;;;2.10;2.10;;;;;;;-1.49;49.80;93153.97;5024808;28;20660;-73
2022/01/25 10:26:53;;;;;;;3.83;2.83;;;;;;;-0.31;46.55;93178.13;5020880;28;20535;-72
2022/01/25 10:29:23;;;;;;;4.50;4.23;;;;;;;0.84;44.07;93179.50;5023695;28;20483;-73
2022/01/25 10:31:56;;;;;;;2.37;2.17;;;;;;;1.62;42.11;93172.97;5020733;28;20220;-72
2022/01/25 10:34:28;;;;;;;4.57;4.33;;;;;;;2.08;40.06;93183.69;5023785;28;20530;-73
2022/01/25 10:36:56;;;;;;;3.90;3.70;;;;;;;2.50;39.85;93169.44;5023150;28;20554;-73
2022/01/25 10:39:27;;;;;;;4.33;4.13;;;;;;;2.84;38.53;93142.69;5015534;28;20566;-73
2022/01/25 10:42:02;;;;;;;6.83;6.43;;;;;;;2.72;37.83;93147.72;5024187;28;20480;-73
2022/01/25 10:44:48;;;;;;;3.47;3.37;;;;;;;2.93;37.18;93160.09;5022191;28;20227;-72
2022/01/25 10:47:15;;;;;;;5.47;5.27;;;;;;;3.05;36.61;93162.53;5013356;28;20491;-73
2022/01/25 10:49:48;;;;;;;10.87;9.93;;;;;;;3.42;36.83;93125.66;5018099;28;20457;-73
2022/01/25 10:52:24;;;;;;;8.97;6.10;;;;;;;4.49;36.09;93136.28;5018048;28;20491;-74
2022/01/25 10:54:51;;;;;;;5.90;5.37;;;;;;;4.71;35.40;93124.34;5014996;28;20236;-73
2022/01/25 10:57:20;;;;;;;6.20;5.90;;;;;;;5.35;34.66;93141.78;5013359;28;20221;-74
2022/01/25 10:59:58;;;;;;;6.67;6.10;;;;;;;6.39;33.18;93140.09;5012436;28;20502;-73
2022/01/25 11:02:25;;;;;;;8.37;7.40;;;;;;;6.53;33.13;93125.63;5016999;28;20280;-73
2022/01/25 11:05:05;;;;;;;10.93;8.10;;;;;;;7.05;31.86;93126.19;5017400;28;20543;-73
2022/01/25 11:07:38;;;;;;;10.37;9.03;;;;;;;6.91;32.25;93122.34;5021119;28;20523;-74
2022/01/25 11:10:07;;;;;;;9.90;8.90;;;;;;;7.47;32.03;93106.00;5024426;28;20609;-74
2022/01/25 11:12:38;;;;;;;13.83;9.87;;;;;;;7.31;31.04;93123.13;5023924;28;20197;-74
2022/01/25 11:15:06;;;;;;;6.90;5.77;;;;;;;7.47;30.81;93114.38;5025025;28;20581;-75
2022/01/25 11:17:34;;;;;;;8.50;7.80;;;;;;;7.89;29.85;93120.06;5021518;28;20263;-75
2022/01/25 11:20:05;;;;;;;6.60;5.77;;;;;;;8.03;29.78;93118.91;5022975;28;20601;-75
2022/01/25 11:22:32;;;;;;;20.50;14.47;;;;;;;7.76;30.38;93108.66;5021914;28;20571;-74
2022/01/25 11:25:01;;;;;;;18.23;12.87;;;;;;;7.53;28.16;93110.06;5024205;28;20634;-75
2022/01/25 11:27:29;;;;;;;35.27;14.00;;;;;;;7.02;30.71;93090.28;5023492;28;20294;-74
2022/01/25 11:30:00;;;;;;;28.70;14.17;;;;;;;6.14;30.28;93102.91;5021144;28;20563;-76
2022/01/25 11:32:31;;;;;;;76.53;31.97;;;;;;;5.19;31.30;93100.28;5027059;28;20532;-75
2022/01/25 11:35:00;;;;;;;28.53;12.00;;;;;;;4.87;32.51;93072.38;5026948;28;20493;-75
2022/01/25 11:37:38;;;;;;;15.13;11.27;;;;;;;5.15;31.25;93083.66;5029117;28;20236;-76
2022/01/25 11:40:20;;;;;;;19.10;10.70;;;;;;;5.52;31.08;93086.41;5020279;28;20562;-75
2022/01/25 11:42:48;;;;;;;14.10;7.87;;;;;;;6.27;30.62;93083.44;5026116;28;20577;-76
2022/01/25 11:45:20;;;;;;;3.97;3.57;;;;;;;6.81;29.14;93095.75;5029045;28;20684;-75
2022/01/25 11:47:50;;;;;;;9.40;5.97;;;;;;;7.05;27.17;93106.09;5028017;28;20524;-76
2022/01/25 11:50:18;;;;;;;4.80;4.40;;;;;;;7.21;27.55;93105.78;5018964;28;20527;-76
2022/01/25 11:52:51;;;;;;;9.20;3.73;;;;;;;7.52;26.53;93113.44;5023246;28;20718;-76
2022/01/25 11:55:26;;;;;;;6.17;5.33;;;;;;;7.72;27.20;93107.06;5032127;28;20483;-76
2022/01/25 11:57:58;;;;;;;4.40;4.00;;;;;;;7.96;26.97;93100.63;5029948;28;20605;-76
2022/01/25 12:00:39;;;;;;;11.17;7.43;;;;;;;6.53;25.30;93131.47;5030404;28;20490;-76
2022/01/25 12:03:22;;;;;;;4.87;3.70;;;;;;;6.13;25.79;93123.03;5030001;28;20197;-75
2022/01/25 12:06:00;;;;;;;7.60;5.23;;;;;;;5.89;26.69;93094.19;5026586;28;20229;-75
2022/01/25 12:08:52;;;;;;;9.87;8.37;;;;;;;5.45;27.57;93099.09;5019746;28;20585;-75
2022/01/25 12:11:30;;;;;;;5.70;5.30;;;;;;;4.95;28.04;93090.66;5021124;28;20264;-75
2022/01/25 12:14:38;;;;;;;6.07;5.00;;;;;;;4.60;30.13;93071.09;5015221;28;20466;-75
2022/01/25 12:17:14;;;;;;;8.20;5.70;;;;;;;4.43;30.02;93060.47;5016375;28;20499;-74
2022/01/25 12:19:47;;;;;;;48.33;13.97;;;;;;;4.81;30.44;93045.78;5023146;28;20554;-75
2022/01/25 12:22:33;;;;;;;8.63;3.50;;;;;;;5.71;30.94;93030.13;5023904;28;20251;-76
2022/01/25 12:25:09;;;;;;;12.27;5.90;;;;;;;6.61;29.18;93053.47;5023611;28;20569;-75
2022/01/25 12:27:51;;;;;;;7.93;7.30;;;;;;;7.48;27.12;93070.78;5026794;28;20194;-76
2022/01/25 12:30:31;;;;;;;4.50;4.20;;;;;;;8.33;25.16;93087.97;5027314;28;20566;-76
2022/01/25 12:33:01;;;;;;;6.97;5.90;;;;;;;8.16;24.96;93105.16;5024530;28;20480;-76
2022/01/25 12:35:40;;;;;;;5.77;5.27;;;;;;;7.19;24.85;93107.50;5027992;28;20556;-76
2022/01/25 12:38:13;;;;;;;8.43;4.63;;;;;;;7.74;26.21;93091.94;5028546;28;20201;-75
2022/01/25 12:40:58;;;;;;;13.03;4.37;;;;;;;8.10;24.63;93090.22;5027060;28;20562;-78
2022/01/25 12:43:28;;;;;;;3.53;3.33;;;;;;;8.37;24.02;93087.00;5023579;28;20205;-78
2022/01/25 12:45:59;;;;;;;5.27;4.87;;;;;;;6.75;25.54;93094.22;5020366;28;20679;-76
2022/01/25 12:48:29;;;;;;;10.00;6.20;;;;;;;5.45;26.44;93094.91;5020658;28;20521;-77
2022/01/25 12:51:00;;;;;;;8.63;3.53;;;;;;;3.64;29.31;93074.69;5029092;28;20585;-76
2022/01/25 12:53:29;;;;;;;2.57;2.43;;;;;;;2.93;29.45;93047.81;5027332;28;20594;-77
2022/01/25 12:56:00;;;;;;;6.17;5.67;;;;;;;2.30;31.08;93037.41;5027853;28;20655;-77